createdAt,value
2023-05-13T00:04:43.148Z,101153.72
2023-05-13T00:09:46.810Z,101149.56
2023-05-13T00:14:50.534Z,101147.38
2023-05-13T00:19:55.783Z,101154.81
2023-05-13T00:24:59.504Z,101151.63
2023-05-13T00:30:03.216Z,101148.03
2023-05-13T00:35:09.320Z,101152.13
2023-05-13T00:40:21.097Z,101149.47
2023-05-13T00:45:24.958Z,101145.78
2023-05-13T00:50:30.254Z,101150.81
2023-05-13T00:55:33.900Z,101142.47
2023-05-13T01:00:42.426Z,101147.13
2023-05-13T01:05:56.940Z,101137.13
2023-05-13T01:11:04.886Z,101138.13
2023-05-13T01:16:12.239Z,101130.72
2023-05-13T01:21:17.540Z,101135.44
2023-05-13T01:26:24.633Z,101132.03
2023-05-13T01:31:29.996Z,101130.25
2023-05-13T01:36:34.545Z,101143.59
2023-05-13T01:41:39.814Z,101140.97
2023-05-13T01:46:45.050Z,101140.00
2023-05-13T01:51:48.717Z,101133.75
2023-05-13T01:56:54.049Z,101149.25
2023-05-13T02:01:57.683Z,101149.50
2023-05-13T02:07:01.347Z,101141.84
2023-05-13T02:12:08.231Z,101150.28
2023-05-13T02:17:11.845Z,101142.13
2023-05-13T02:22:15.500Z,101136.53
2023-05-13T02:27:20.799Z,101134.19
2023-05-13T02:32:24.467Z,101146.31
2023-05-13T02:37:28.083Z,101147.28
2023-05-13T02:42:33.381Z,101153.41
2023-05-13T02:47:37.014Z,101156.47
2023-05-13T02:52:40.753Z,101149.84
2023-05-13T02:57:46.026Z,101164.84
2023-05-13T03:02:48.922Z,101164.66
2023-05-13T03:07:52.669Z,101165.06
2023-05-13T03:12:58.065Z,101159.91
2023-05-13T03:18:00.939Z,101169.19
2023-05-13T03:23:04.930Z,101173.47
2023-05-13T03:28:10.302Z,101183.69
2023-05-13T03:33:13.197Z,101178.91
2023-05-13T03:38:16.872Z,101186.91
2023-05-13T03:43:23.122Z,101194.50
2023-05-13T03:48:26.770Z,101195.56
2023-05-13T03:53:30.558Z,101201.28
2023-05-13T03:58:35.816Z,101201.06
2023-05-13T04:03:39.426Z,101204.63
2023-05-13T04:08:43.099Z,101199.09
2023-05-13T04:13:49.328Z,101202.88
2023-05-13T04:18:53.014Z,101202.94
2023-05-13T04:23:56.657Z,101203.94
2023-05-13T04:29:01.949Z,101210.69
2023-05-13T04:34:05.545Z,101219.34
2023-05-13T04:39:10.269Z,101221.19
2023-05-13T04:44:15.550Z,101220.13
2023-05-13T04:49:19.179Z,101215.22
2023-05-13T04:54:23.320Z,101225.91
2023-05-13T04:59:28.668Z,101225.25
2023-05-13T05:04:32.279Z,101216.63
2023-05-13T05:09:36.511Z,101217.16
2023-05-13T05:14:41.843Z,101221.00
2023-05-13T05:19:45.401Z,101215.06
2023-05-13T05:24:49.011Z,101201.41
2023-05-13T05:29:54.368Z,101196.28
2023-05-13T05:34:57.972Z,101199.19
2023-05-13T05:40:01.606Z,101191.59
2023-05-13T05:45:07.789Z,101190.88
2023-05-13T05:50:11.910Z,101184.75
2023-05-13T05:55:15.534Z,101178.06
2023-05-13T06:00:21.487Z,101187.31
2023-05-13T06:05:25.171Z,101194.72
2023-05-13T06:10:28.935Z,101191.38
2023-05-13T06:15:34.435Z,101190.47
2023-05-13T06:20:38.067Z,101182.06
2023-05-13T06:25:41.731Z,101182.94
2023-05-13T06:30:47.401Z,101190.03
2023-05-13T06:35:51.007Z,101194.91
2023-05-13T06:40:54.668Z,101188.03
2023-05-13T06:45:59.924Z,101184.59
2023-05-13T06:51:03.514Z,101191.84
2023-05-13T06:56:07.755Z,101179.66
2023-05-13T07:01:13.110Z,101176.59
2023-05-13T07:06:16.822Z,101174.88
2023-05-13T07:11:20.463Z,101165.09
2023-05-13T07:16:26.340Z,101167.25
2023-05-13T07:21:30.173Z,101169.38
2023-05-13T07:26:34.514Z,101161.44
2023-05-13T07:31:39.878Z,101158.06
2023-05-13T07:36:43.634Z,101162.38
2023-05-13T07:41:47.256Z,101159.13
2023-05-13T07:46:52.559Z,101149.66
2023-05-13T07:51:56.365Z,101147.47
2023-05-13T07:56:59.976Z,101157.44
2023-05-13T08:02:05.553Z,101153.91
2023-05-13T08:07:09.143Z,101144.31
2023-05-13T08:12:12.808Z,101155.16
2023-05-13T08:17:18.095Z,101139.25
2023-05-13T08:22:21.711Z,101131.56
2023-05-13T08:27:25.304Z,101128.25
2023-05-13T08:32:30.576Z,101116.13
2023-05-13T08:37:34.216Z,101111.38
2023-05-13T08:42:40.102Z,101107.13
2023-05-13T08:47:49.430Z,101109.31
2023-05-13T08:52:54.765Z,101097.66
2023-05-13T08:57:58.401Z,101100.88
2023-05-13T09:03:04.493Z,101090.56
2023-05-13T09:08:09.409Z,101086.97
2023-05-13T09:13:14.113Z,101094.28
2023-05-13T09:18:19.777Z,101093.94
2023-05-13T09:23:24.924Z,101090.38
2023-05-13T09:28:28.548Z,101085.03
2023-05-13T09:33:33.890Z,101083.25
2023-05-13T09:38:37.506Z,101082.59
2023-05-13T09:43:41.229Z,101081.88
2023-05-13T09:48:46.620Z,101080.31
2023-05-13T09:53:50.229Z,101081.25
2023-05-13T09:58:54.154Z,101081.22
2023-05-13T10:04:00.293Z,101077.97
2023-05-13T10:09:07.290Z,101081.38
2023-05-13T10:14:11.181Z,101079.75
2023-05-13T10:19:16.687Z,101073.72
2023-05-13T10:24:21.479Z,101063.53
2023-05-13T10:29:27.285Z,101063.50
2023-05-13T10:34:34.271Z,101060.06
2023-05-13T10:40:02.983Z,101053.31
2023-05-13T10:45:08.193Z,101057.13
2023-05-13T10:50:26.120Z,101053.81
2023-05-13T10:55:29.779Z,101049.41
2023-05-13T11:00:33.685Z,101046.88
2023-05-13T11:05:40.937Z,101054.97
2023-05-13T11:10:55.182Z,101059.38
2023-05-13T11:15:58.902Z,101066.34
2023-05-13T11:21:07.409Z,101061.13
2023-05-13T11:26:12.429Z,101065.63
2023-05-13T11:31:17.585Z,101063.06
2023-05-13T11:36:22.937Z,101062.41
2023-05-13T11:41:26.810Z,101061.53
2023-05-13T11:46:30.598Z,101057.69
2023-05-13T11:51:36.447Z,101061.19
2023-05-13T11:56:44.280Z,101062.84
2023-05-13T12:01:58.891Z,101062.75
2023-05-13T12:07:05.164Z,101063.81
2023-05-13T12:12:09.011Z,101057.06
2023-05-13T12:17:12.962Z,101069.31
2023-05-13T12:22:21.988Z,101070.56
2023-05-13T12:27:25.674Z,101070.47
2023-05-13T12:32:29.345Z,101070.28
2023-05-13T12:37:34.661Z,101060.53
2023-05-13T12:42:38.580Z,101057.25
2023-05-13T12:47:52.024Z,101061.56
2023-05-13T12:52:58.080Z,101048.59
2023-05-13T12:58:01.652Z,101057.28
2023-05-13T13:03:05.483Z,101049.34
2023-05-13T13:08:10.888Z,101044.84
2023-05-13T13:13:14.493Z,101043.97
2023-05-13T13:18:19.497Z,101067.63
2023-05-13T13:23:24.817Z,101076.22
2023-05-13T13:28:28.580Z,101071.63
2023-05-13T13:33:32.293Z,101071.44
2023-05-13T13:38:38.455Z,101069.06
2023-05-13T13:43:42.148Z,101070.75
2023-05-13T13:48:45.780Z,101074.84
2023-05-13T13:53:51.170Z,101079.03
2023-05-13T13:58:54.768Z,101080.44
2023-05-13T14:04:11.831Z,101090.72
2023-05-13T14:09:17.209Z,101089.75
2023-05-13T14:14:20.868Z,101087.19
2023-05-13T14:19:24.518Z,101077.50
2023-05-13T14:24:29.761Z,101088.22
2023-05-13T14:29:33.340Z,101098.97
2023-05-13T14:34:37.845Z,101090.25
2023-05-13T14:39:43.110Z,101094.97
2023-05-13T14:44:46.752Z,101096.56
2023-05-13T14:49:50.399Z,101093.78
2023-05-13T14:54:55.734Z,101087.91
2023-05-13T15:00:00.118Z,101090.69
2023-05-13T15:05:03.946Z,101089.16
2023-05-13T15:10:11.803Z,101108.19
2023-05-13T15:15:15.420Z,101103.25
2023-05-13T15:20:19.280Z,101104.16
2023-05-13T15:25:24.862Z,101107.13
2023-05-13T15:30:30.661Z,101123.09
2023-05-13T15:35:36.091Z,101111.34
2023-05-13T15:40:41.445Z,101109.72
2023-05-13T15:45:45.185Z,101110.38
2023-05-13T15:50:49.070Z,101101.19
2023-05-13T15:55:54.766Z,101105.09
2023-05-13T16:00:57.581Z,101101.69
2023-05-13T16:06:01.340Z,101100.50
2023-05-13T16:11:06.704Z,101096.69
2023-05-13T16:16:10.407Z,101080.50
2023-05-13T16:21:14.271Z,101081.59
2023-05-13T16:26:19.640Z,101068.31
2023-05-13T16:31:22.542Z,101060.34
2023-05-13T16:36:26.216Z,101060.38
2023-05-13T16:41:31.502Z,101061.28
2023-05-13T16:46:34.321Z,101061.38
2023-05-13T16:51:37.893Z,101065.34
2023-05-13T16:56:43.683Z,101049.38
2023-05-13T17:01:47.445Z,101051.94
2023-05-13T17:06:51.134Z,101038.91
2023-05-13T17:11:57.044Z,101026.72
2023-05-13T17:17:00.736Z,101040.28
2023-05-13T17:22:04.494Z,101033.47
2023-05-13T17:27:09.828Z,101038.47
2023-05-13T17:32:13.526Z,101031.75
2023-05-13T17:37:17.148Z,101028.44
2023-05-13T17:42:22.383Z,101028.09
2023-05-13T17:47:26.066Z,101020.59
2023-05-13T17:52:29.657Z,101017.66
2023-05-13T17:57:34.963Z,101016.47
2023-05-13T18:02:38.670Z,101000.84
2023-05-13T18:07:42.281Z,100999.50
2023-05-13T18:12:47.519Z,100995.00
2023-05-13T18:17:51.356Z,100991.69
2023-05-13T18:22:55.005Z,100974.53
2023-05-13T18:28:00.312Z,100980.03
2023-05-13T18:33:04.033Z,100980.66
2023-05-13T18:38:07.692Z,100979.78
2023-05-13T18:43:12.948Z,100974.81
2023-05-13T18:48:16.589Z,100970.22
2023-05-13T18:53:20.299Z,100955.72
2023-05-13T18:58:25.773Z,100958.06
2023-05-13T19:03:29.457Z,100959.72
2023-05-13T19:08:33.172Z,100940.56
2023-05-13T19:13:46.765Z,100932.72
2023-05-13T19:18:51.162Z,100933.25
2023-05-13T19:23:54.835Z,100922.03
2023-05-13T19:29:00.202Z,100917.38
2023-05-13T19:34:03.860Z,100907.94
2023-05-13T19:39:07.509Z,100905.81
2023-05-13T19:44:12.791Z,100906.78
2023-05-13T19:49:16.378Z,100892.22
2023-05-13T19:54:20.102Z,100876.00
2023-05-13T19:59:25.504Z,100870.03
2023-05-13T20:04:29.823Z,100869.72
2023-05-13T20:09:33.492Z,100856.28
2023-05-13T20:14:45.917Z,100847.72
2023-05-13T20:19:50.285Z,100849.41
2023-05-13T20:24:53.195Z,100839.06
2023-05-13T20:29:58.643Z,100828.06
2023-05-13T20:35:02.258Z,100826.22
2023-05-13T20:40:07.012Z,100815.41
2023-05-13T20:45:13.152Z,100822.34
2023-05-13T20:50:16.860Z,100799.72
2023-05-13T20:55:20.600Z,100793.81
2023-05-13T21:00:26.149Z,100784.09
2023-05-13T21:05:29.925Z,100783.59
2023-05-13T21:10:33.535Z,100770.25
2023-05-13T21:15:38.843Z,100758.00
2023-05-13T21:20:42.435Z,100748.81
2023-05-13T21:25:46.302Z,100745.41
2023-05-13T21:30:51.600Z,100722.56
2023-05-13T21:35:55.643Z,100720.75
2023-05-13T21:40:59.554Z,100714.75
2023-05-13T21:46:04.834Z,100711.91
2023-05-13T21:51:08.462Z,100699.16
2023-05-13T21:56:12.050Z,100697.13
2023-05-13T22:01:17.394Z,100694.09
2023-05-13T22:06:20.967Z,100693.84
2023-05-13T22:11:24.606Z,100680.47
2023-05-13T22:16:29.986Z,100669.56
2023-05-13T22:21:33.648Z,100664.41
2023-05-13T22:26:37.325Z,100663.41
2023-05-13T22:31:42.634Z,100647.78
2023-05-13T22:36:46.301Z,100642.78
2023-05-13T22:41:49.935Z,100631.69
2023-05-13T22:46:55.220Z,100633.00
2023-05-13T22:51:58.824Z,100616.25
2023-05-13T22:57:02.464Z,100613.91
2023-05-13T23:02:07.938Z,100611.38
2023-05-13T23:07:11.679Z,100600.50
2023-05-13T23:12:15.272Z,100598.25
2023-05-13T23:17:21.545Z,100593.84
2023-05-13T23:22:25.160Z,100591.84
2023-05-13T23:27:28.801Z,100580.06
2023-05-13T23:32:34.100Z,100580.56
2023-05-13T23:37:38.398Z,100578.03
2023-05-13T23:42:42.011Z,100570.94
2023-05-13T23:47:47.285Z,100567.56
2023-05-13T23:52:50.898Z,100556.28
2023-05-13T23:57:54.543Z,100549.41
